Strona główna
METAR-TAF:

METAR-TAF

Lotnisko :

Port lotniczy Bagdad

Bagdad, Irak

Szerokość geograficzna: 33-15-45N, Długość geograficzna: 44-14-04E, wysokość: 35 m

Aktualna obserwacja pogody

Raport powstał 1 godzina i 2 minut temu, godzina 06:00 UTC
Wiatr 3 kt od zachodnio-północny zachód
Temperatura 12°C
Wilgotność 100%
Ciśnienie 1021 hPa
Widzialność: 7000 m
Mało chmury na wysokości 3000 ft

METAR: ORBI 100600Z 30003KT 7000 FEW030 12/12 Q1021 NOSIG

czas: 10:02 (07:02 UTC)

Prognoza

Raport powstał 2 godziny i 2 minut temu, godzina 05:00 UTC
Prognoza ważna od 10 godzina 06 UTC do 11 godzina 06 UTC
Wiatr 6 kt od północno-północny zachód
Widzialność: 5000 m
Rozproszone chmury na wysokości 4000 ft
zamglenie
Przejściowo
od 10 godzina 06 UTC do 10 godzina 11 UTC
Widzialność: 3000 m
Stopniowe zmiany
od 10 godzina 12 UTC do 10 godzina 14 UTC
Widzialność: 8000 m

TAF: ORBI 100500Z 1006/1106 33006KT 5000 BR SCT040 TEMPO 1006/1011 3000 BECMG 1012/1014 8000 NSC

Obserwacja i prognoza pogody dla ponad 4000 lotnisk (raport METAR i TAF).

Dostępne stacje oznaczono żółtymi i czerwonymi punktami na mapie.

Najedź kursorem aby zobaczyć nazwę stacji.

Kliknij aby zobaczyć obserwacje i prognozy pogody.

Aby zmienić mapę: kliknij na zielony przycisk z czarnym krzyżykiem, aby powiększyć; na zielony przycisk z myślnikiem, aby pomniejszyć; na zielone strzałki, aby przejść do map sąsiednich.


METAR-TAF: